createdAt,value
2022-08-17T00:01:23.487Z,18.00
2022-08-17T00:03:53.167Z,17.90
2022-08-17T00:06:25.046Z,17.90
2022-08-17T00:08:59.820Z,17.90
2022-08-17T00:11:37.746Z,17.80
2022-08-17T00:14:11.673Z,17.70
2022-08-17T00:16:50.478Z,17.70
2022-08-17T00:19:24.533Z,17.60
2022-08-17T00:22:32.814Z,17.60
2022-08-17T00:24:39.223Z,17.50
2022-08-17T00:27:05.929Z,17.50
2022-08-17T00:29:32.613Z,17.40
2022-08-17T00:31:59.323Z,17.40
2022-08-17T00:34:27.742Z,17.30
2022-08-17T00:36:54.740Z,17.30
2022-08-17T00:39:21.437Z,17.20
2022-08-17T00:41:48.127Z,17.20
2022-08-17T00:44:15.583Z,17.20
2022-08-17T00:46:43.018Z,17.20
2022-08-17T00:49:10.055Z,17.30
2022-08-17T00:51:42.671Z,17.30
2022-08-17T00:54:23.047Z,17.20
2022-08-17T00:56:52.692Z,17.00
2022-08-17T00:59:20.816Z,17.00
2022-08-17T01:01:48.477Z,16.90
2022-08-17T01:04:15.178Z,16.90
2022-08-17T01:06:42.164Z,16.90
2022-08-17T01:09:09.030Z,16.90
2022-08-17T01:11:37.145Z,16.80
2022-08-17T01:14:03.900Z,16.90
2022-08-17T01:16:31.130Z,16.90
2022-08-17T01:19:05.468Z,16.80
2022-08-17T01:21:54.210Z,16.80
2022-08-17T01:24:21.002Z,16.80
2022-08-17T01:26:47.718Z,16.80
2022-08-17T01:29:15.990Z,16.80
2022-08-17T01:31:51.317Z,16.80
2022-08-17T01:34:18.082Z,16.80
2022-08-17T01:36:47.161Z,16.70
2022-08-17T01:39:18.798Z,16.70
2022-08-17T01:41:45.773Z,16.70
2022-08-17T01:44:12.487Z,16.60
2022-08-17T01:46:39.182Z,16.60
2022-08-17T01:49:07.415Z,16.60
2022-08-17T01:51:34.214Z,16.60
2022-08-17T01:54:02.865Z,16.70
2022-08-17T01:56:29.859Z,16.70
2022-08-17T01:58:56.784Z,16.70
2022-08-17T02:01:26.397Z,16.60
2022-08-17T02:04:00.943Z,16.60
2022-08-17T02:06:30.548Z,16.60
2022-08-17T02:09:03.574Z,16.60
2022-08-17T02:11:31.621Z,16.60
2022-08-17T02:14:02.872Z,16.60
2022-08-17T02:16:37.952Z,16.60
2022-08-17T02:19:06.615Z,16.50
2022-08-17T02:21:33.338Z,16.60
2022-08-17T02:24:00.177Z,16.50
2022-08-17T02:26:26.889Z,16.50
2022-08-17T02:28:53.678Z,16.60
2022-08-17T02:31:21.254Z,16.50
2022-08-17T02:34:03.528Z,16.50
2022-08-17T02:36:32.452Z,16.50
2022-08-17T02:39:01.518Z,16.40
2022-08-17T02:41:28.356Z,16.40
2022-08-17T02:43:55.080Z,16.40
2022-08-17T02:46:22.515Z,16.40
2022-08-17T02:48:49.235Z,16.40
2022-08-17T02:51:16.828Z,16.40
2022-08-17T02:53:43.681Z,16.40
2022-08-17T02:56:10.395Z,16.40
2022-08-17T02:58:37.105Z,16.30
2022-08-17T03:01:07.504Z,16.30
2022-08-17T03:03:34.611Z,16.30
2022-08-17T03:06:01.343Z,16.30
2022-08-17T03:08:28.042Z,16.30
2022-08-17T03:10:54.739Z,16.30
2022-08-17T03:13:21.669Z,16.30
2022-08-17T03:15:48.463Z,16.20
2022-08-17T03:18:18.955Z,16.20
2022-08-17T03:20:51.282Z,16.20
2022-08-17T03:23:18.656Z,16.20
2022-08-17T03:25:53.381Z,16.20
2022-08-17T03:28:20.925Z,16.10
2022-08-17T03:30:47.638Z,16.10
2022-08-17T03:33:14.612Z,16.10
2022-08-17T03:35:41.764Z,16.10
2022-08-17T03:38:11.615Z,16.10
2022-08-17T03:40:58.554Z,16.10
2022-08-17T03:43:25.189Z,16.10
2022-08-17T03:46:27.152Z,16.00
2022-08-17T03:49:14.779Z,16.00
2022-08-17T03:52:00.056Z,16.00
2022-08-17T03:54:45.366Z,16.00
2022-08-17T03:57:12.522Z,16.00
2022-08-17T03:59:39.330Z,16.00
2022-08-17T04:02:11.455Z,16.00
2022-08-17T04:04:38.539Z,16.00
2022-08-17T04:07:05.589Z,16.00
2022-08-17T04:09:32.347Z,16.00
2022-08-17T04:12:01.185Z,16.00
2022-08-17T04:14:36.350Z,16.00
2022-08-17T04:17:20.101Z,16.10
2022-08-17T04:19:46.957Z,16.10
2022-08-17T04:22:30.100Z,16.10
2022-08-17T04:24:58.738Z,16.10
2022-08-17T04:27:25.525Z,16.10
2022-08-17T04:29:55.587Z,16.10
2022-08-17T04:33:04.251Z,16.10
2022-08-17T04:35:10.082Z,16.10
2022-08-17T04:37:36.794Z,16.20
2022-08-17T04:40:23.170Z,16.20
2022-08-17T04:43:04.739Z,16.20
2022-08-17T04:45:32.309Z,16.30
2022-08-17T04:48:00.291Z,16.30
2022-08-17T04:50:27.493Z,16.40
2022-08-17T04:52:54.302Z,16.40
2022-08-17T04:55:21.206Z,16.40
2022-08-17T04:57:47.933Z,16.50
2022-08-17T05:00:14.874Z,16.50
2022-08-17T05:02:49.874Z,16.60
2022-08-17T05:05:27.832Z,16.70
2022-08-17T05:07:55.485Z,16.80
2022-08-17T05:10:23.660Z,16.90
2022-08-17T05:13:08.036Z,17.00
2022-08-17T05:15:38.363Z,17.00
2022-08-17T05:18:12.148Z,17.10
2022-08-17T05:20:39.020Z,17.20
2022-08-17T05:23:07.333Z,17.30
2022-08-17T05:25:39.077Z,17.40
2022-08-17T05:28:06.333Z,17.50
2022-08-17T05:30:33.241Z,17.60
2022-08-17T05:33:06.051Z,17.70
2022-08-17T05:35:35.298Z,18.00
2022-08-17T05:38:02.145Z,18.20
2022-08-17T05:40:32.804Z,18.50
2022-08-17T05:43:19.246Z,18.80
2022-08-17T05:46:10.248Z,19.10
2022-08-17T05:48:39.945Z,19.50
2022-08-17T05:51:31.612Z,20.00
2022-08-17T05:54:02.998Z,20.50
2022-08-17T05:56:56.890Z,21.00
2022-08-17T05:59:48.553Z,21.60
2022-08-17T06:02:52.506Z,22.10
2022-08-17T06:05:54.399Z,22.70
2022-08-17T06:08:39.741Z,23.30
2022-08-17T06:11:25.234Z,23.80
2022-08-17T06:14:05.223Z,24.20
2022-08-17T06:16:36.251Z,24.60
2022-08-17T06:19:12.899Z,24.90
2022-08-17T06:21:41.455Z,25.20
2022-08-17T06:24:29.818Z,25.40
2022-08-17T06:27:01.012Z,25.60
2022-08-17T06:29:39.749Z,25.90
2022-08-17T06:32:08.459Z,26.30
2022-08-17T06:34:35.162Z,26.40
2022-08-17T06:37:12.846Z,26.30
2022-08-17T06:40:07.620Z,26.30
2022-08-17T06:43:06.497Z,26.30
2022-08-17T06:45:58.716Z,26.50
2022-08-17T06:48:32.633Z,26.80
2022-08-17T06:51:27.021Z,27.10
2022-08-17T06:54:00.687Z,27.50
2022-08-17T06:56:54.678Z,27.80
2022-08-17T06:59:55.030Z,28.10
2022-08-17T07:02:52.657Z,28.30
2022-08-17T07:05:22.403Z,28.70
2022-08-17T07:08:01.772Z,28.80
2022-08-17T07:10:39.661Z,29.00
2022-08-17T07:13:38.091Z,29.30
2022-08-17T07:16:22.283Z,29.50
2022-08-17T07:18:50.371Z,29.50
2022-08-17T07:21:40.855Z,29.70
2022-08-17T07:24:31.747Z,29.70
2022-08-17T07:27:11.030Z,29.60
2022-08-17T07:29:39.999Z,29.50
2022-08-17T07:32:07.620Z,29.70
2022-08-17T07:35:05.069Z,30.00
2022-08-17T07:37:33.345Z,30.50
2022-08-17T07:40:15.886Z,30.80
2022-08-17T07:42:54.470Z,31.20
2022-08-17T07:45:39.803Z,31.50
2022-08-17T07:48:21.481Z,31.60
2022-08-17T07:50:49.720Z,31.90
2022-08-17T07:53:18.738Z,32.20
2022-08-17T07:55:45.469Z,32.40
2022-08-17T07:58:20.787Z,32.60
2022-08-17T08:01:09.211Z,32.70
2022-08-17T08:03:41.287Z,32.80
2022-08-17T08:06:20.573Z,33.00
2022-08-17T08:08:52.155Z,33.20
2022-08-17T08:11:44.134Z,33.10
2022-08-17T08:14:28.264Z,32.90
2022-08-17T08:16:58.993Z,33.00
2022-08-17T08:19:26.259Z,33.00
2022-08-17T08:22:17.531Z,33.00
2022-08-17T08:25:11.252Z,33.00
2022-08-17T08:27:44.644Z,33.10
2022-08-17T08:30:21.335Z,33.00
2022-08-17T08:32:57.276Z,33.10
2022-08-17T08:35:34.994Z,33.40
2022-08-17T08:38:14.783Z,33.70
2022-08-17T08:40:58.545Z,34.10
2022-08-17T08:43:31.066Z,34.30
2022-08-17T08:46:19.912Z,34.30
2022-08-17T08:49:12.249Z,34.50
2022-08-17T08:51:58.435Z,35.00
2022-08-17T08:54:37.487Z,35.20
2022-08-17T08:57:30.727Z,35.30
2022-08-17T09:00:10.132Z,35.30
2022-08-17T09:02:59.924Z,35.10
2022-08-17T09:05:52.743Z,35.20
2022-08-17T09:08:23.340Z,35.30
2022-08-17T09:11:13.417Z,35.10
2022-08-17T09:13:43.057Z,35.20
2022-08-17T09:16:15.208Z,35.40
2022-08-17T09:19:00.093Z,35.30
2022-08-17T09:21:41.484Z,35.20
2022-08-17T09:24:33.808Z,35.10
2022-08-17T09:27:18.375Z,34.70
2022-08-17T09:29:58.836Z,34.60
2022-08-17T09:32:34.147Z,34.70
2022-08-17T09:35:03.915Z,34.70
2022-08-17T09:37:47.778Z,34.80
2022-08-17T09:40:19.043Z,34.70
2022-08-17T09:42:49.071Z,34.70
2022-08-17T09:45:21.575Z,34.60
2022-08-17T09:47:50.262Z,34.70
2022-08-17T09:51:03.148Z,34.70
2022-08-17T09:53:14.048Z,34.80
2022-08-17T09:56:02.776Z,35.00
2022-08-17T09:58:43.004Z,35.30
2022-08-17T10:01:31.754Z,35.50
2022-08-17T10:04:29.664Z,35.70
2022-08-17T10:07:31.906Z,35.60
2022-08-17T10:10:04.432Z,35.60
2022-08-17T10:12:38.780Z,35.60
2022-08-17T10:15:18.938Z,35.60
2022-08-17T10:18:08.084Z,35.70
2022-08-17T10:21:32.063Z,35.80
2022-08-17T10:24:38.833Z,35.90
2022-08-17T10:27:09.441Z,35.60
2022-08-17T10:29:48.902Z,35.00
2022-08-17T10:32:32.830Z,34.80
2022-08-17T10:35:08.487Z,35.00
2022-08-17T10:37:46.473Z,35.10
2022-08-17T10:40:38.411Z,35.20
2022-08-17T10:43:33.219Z,35.30
2022-08-17T10:46:30.441Z,35.20
2022-08-17T10:49:17.127Z,35.20
2022-08-17T10:51:45.994Z,35.40
2022-08-17T10:54:24.854Z,35.40
2022-08-17T10:56:53.033Z,35.20
2022-08-17T10:59:35.016Z,35.00
2022-08-17T11:02:12.142Z,34.60
2022-08-17T11:05:22.266Z,34.50
2022-08-17T11:08:07.042Z,34.60
2022-08-17T11:10:52.860Z,34.70
2022-08-17T11:13:26.662Z,34.60
2022-08-17T11:16:08.881Z,34.50
2022-08-17T11:19:10.722Z,34.60
2022-08-17T11:22:04.743Z,34.60
2022-08-17T11:24:33.517Z,34.50
2022-08-17T11:27:17.953Z,34.70
2022-08-17T11:30:02.246Z,35.10
2022-08-17T11:32:47.052Z,35.40
2022-08-17T11:35:20.602Z,35.70
2022-08-17T11:38:15.953Z,36.00
2022-08-17T11:41:20.316Z,36.40
2022-08-17T11:44:27.765Z,36.60
2022-08-17T11:47:37.951Z,36.80
2022-08-17T11:51:02.656Z,36.80
2022-08-17T11:53:38.576Z,36.90
2022-08-17T11:56:29.967Z,37.00
2022-08-17T11:58:56.711Z,36.90
2022-08-17T12:01:23.376Z,36.90
2022-08-17T12:04:28.928Z,37.00
2022-08-17T12:07:05.475Z,36.90
2022-08-17T12:09:32.443Z,36.90
2022-08-17T12:12:12.385Z,37.00
2022-08-17T12:15:09.023Z,37.20
2022-08-17T12:17:40.658Z,37.30
2022-08-17T12:20:39.978Z,37.40
2022-08-17T12:23:21.133Z,37.30
2022-08-17T12:26:10.139Z,37.00
2022-08-17T12:28:38.745Z,36.50
2022-08-17T12:31:19.051Z,36.00
2022-08-17T12:33:46.113Z,35.90
2022-08-17T12:36:17.094Z,35.90
2022-08-17T12:38:53.823Z,35.70
2022-08-17T12:41:40.830Z,35.60
2022-08-17T12:44:15.539Z,35.60
2022-08-17T12:46:49.772Z,35.70
2022-08-17T12:49:27.877Z,35.90
2022-08-17T12:52:01.392Z,36.20
2022-08-17T12:54:46.924Z,36.50
2022-08-17T12:57:16.468Z,36.70
2022-08-17T12:59:46.407Z,37.00
2022-08-17T13:02:28.349Z,37.10
2022-08-17T13:04:57.282Z,37.00
2022-08-17T13:07:32.057Z,36.90
2022-08-17T13:09:58.890Z,36.70
2022-08-17T13:12:33.621Z,36.50
2022-08-17T13:15:00.582Z,36.30
2022-08-17T13:17:33.098Z,36.20
2022-08-17T13:19:59.963Z,36.40
2022-08-17T13:22:26.917Z,36.60
2022-08-17T13:24:58.142Z,36.70
2022-08-17T13:27:25.993Z,36.70
2022-08-17T13:29:58.015Z,36.80
2022-08-17T13:32:31.060Z,37.00
2022-08-17T13:35:15.227Z,37.30
2022-08-17T13:37:57.354Z,37.50
2022-08-17T13:40:35.719Z,37.40
2022-08-17T13:43:03.367Z,37.00
2022-08-17T13:45:34.247Z,36.80
2022-08-17T13:48:15.740Z,37.00
2022-08-17T13:50:55.586Z,37.40
2022-08-17T13:53:32.853Z,37.60
2022-08-17T13:56:03.381Z,37.40
2022-08-17T13:58:32.300Z,36.90
2022-08-17T14:00:59.138Z,36.60
2022-08-17T14:03:25.879Z,36.60
2022-08-17T14:05:52.668Z,37.10
2022-08-17T14:08:20.108Z,37.70
2022-08-17T14:10:57.154Z,38.20
2022-08-17T14:13:23.915Z,38.60
2022-08-17T14:15:55.102Z,38.80
2022-08-17T14:18:35.517Z,38.80
2022-08-17T14:21:09.931Z,38.80
2022-08-17T14:23:36.683Z,38.90
2022-08-17T14:26:03.386Z,38.90
2022-08-17T14:28:30.099Z,39.00
2022-08-17T14:30:58.971Z,39.10
2022-08-17T14:33:25.805Z,39.10
2022-08-17T14:35:52.943Z,38.90
2022-08-17T14:38:20.086Z,39.00
2022-08-17T14:40:47.875Z,39.20
2022-08-17T14:43:15.840Z,39.40
2022-08-17T14:45:43.079Z,39.30
2022-08-17T14:48:10.066Z,38.80
2022-08-17T14:50:38.680Z,38.10
2022-08-17T14:53:06.697Z,37.50
2022-08-17T14:55:33.532Z,36.90
2022-08-17T14:58:00.240Z,36.30
2022-08-17T15:00:27.186Z,35.90
2022-08-17T15:02:55.595Z,35.50
2022-08-17T15:05:24.216Z,35.20
2022-08-17T15:07:51.276Z,34.90
2022-08-17T15:10:18.165Z,34.60
2022-08-17T15:12:45.446Z,34.50
2022-08-17T15:15:13.994Z,34.60
2022-08-17T15:17:54.739Z,34.60
2022-08-17T15:20:27.536Z,34.60
2022-08-17T15:22:55.534Z,34.50
2022-08-17T15:25:22.984Z,34.40
2022-08-17T15:27:49.984Z,34.20
2022-08-17T15:30:16.884Z,34.10
2022-08-17T15:32:51.405Z,34.00
2022-08-17T15:35:27.718Z,33.90
2022-08-17T15:38:11.087Z,33.70
2022-08-17T15:40:41.514Z,33.70
2022-08-17T15:43:11.244Z,33.70
2022-08-17T15:45:38.149Z,33.80
2022-08-17T15:48:05.052Z,33.70
2022-08-17T15:50:31.805Z,33.70
2022-08-17T15:52:59.454Z,33.70
2022-08-17T15:55:27.452Z,33.70
2022-08-17T15:57:54.166Z,33.60
2022-08-17T16:00:23.586Z,33.50
2022-08-17T16:03:44.761Z,33.40
2022-08-17T16:05:37.043Z,33.40
2022-08-17T16:08:04.283Z,33.40
2022-08-17T16:10:34.721Z,33.30
2022-08-17T16:13:02.604Z,33.20
2022-08-17T16:15:31.461Z,33.10
2022-08-17T16:17:58.174Z,32.90
2022-08-17T16:20:24.892Z,32.90
2022-08-17T16:22:51.878Z,32.80
2022-08-17T16:25:20.736Z,32.80
2022-08-17T16:27:49.077Z,32.70
2022-08-17T16:30:17.696Z,32.60
2022-08-17T16:32:44.824Z,32.50
2022-08-17T16:35:12.184Z,32.40
2022-08-17T16:37:40.401Z,32.20
2022-08-17T16:40:12.676Z,32.10
2022-08-17T16:42:39.706Z,32.00
2022-08-17T16:45:11.730Z,31.80
2022-08-17T16:47:38.564Z,31.80
2022-08-17T16:50:06.512Z,31.70
2022-08-17T16:52:33.581Z,31.60
2022-08-17T16:55:01.655Z,31.60
2022-08-17T16:57:29.117Z,31.60
2022-08-17T16:59:55.944Z,31.40
2022-08-17T17:02:30.411Z,31.40
2022-08-17T17:05:13.258Z,31.30
2022-08-17T17:08:00.873Z,31.20
2022-08-17T17:10:44.866Z,31.10
2022-08-17T17:13:23.996Z,30.90
2022-08-17T17:16:06.566Z,30.90
2022-08-17T17:18:41.595Z,30.80
2022-08-17T17:21:13.892Z,30.70
2022-08-17T17:23:56.392Z,30.60
2022-08-17T17:26:50.868Z,30.50
2022-08-17T17:29:20.157Z,30.50
2022-08-17T17:32:13.684Z,30.30
2022-08-17T17:34:50.891Z,30.20
2022-08-17T17:37:20.801Z,30.10
2022-08-17T17:39:53.354Z,30.00
2022-08-17T17:42:22.079Z,29.80
2022-08-17T17:45:09.572Z,29.80
2022-08-17T17:47:36.360Z,29.60
2022-08-17T17:50:03.916Z,29.50
2022-08-17T17:53:02.156Z,29.40
2022-08-17T17:55:56.754Z,29.20
2022-08-17T17:58:58.952Z,29.10
2022-08-17T18:01:50.909Z,28.90
2022-08-17T18:04:21.448Z,28.80
2022-08-17T18:07:12.212Z,28.70
2022-08-17T18:10:05.477Z,28.60
2022-08-17T18:13:13.762Z,28.40
2022-08-17T18:15:42.354Z,28.30
2022-08-17T18:18:15.162Z,28.10
2022-08-17T18:20:53.301Z,28.00
2022-08-17T18:23:25.579Z,27.80
2022-08-17T18:25:55.502Z,27.70
2022-08-17T18:28:23.359Z,27.60
2022-08-17T18:31:06.404Z,27.50
2022-08-17T18:33:33.346Z,27.40
2022-08-17T18:36:01.567Z,27.20
2022-08-17T18:38:36.650Z,27.10
2022-08-17T18:41:05.012Z,27.00
2022-08-17T18:43:52.984Z,26.90
2022-08-17T18:46:29.441Z,26.80
2022-08-17T18:49:01.598Z,26.70
2022-08-17T18:51:41.864Z,26.70
2022-08-17T18:54:22.729Z,26.60
2022-08-17T18:56:59.368Z,26.40
2022-08-17T18:59:33.898Z,26.30
2022-08-17T19:02:20.664Z,26.30
2022-08-17T19:05:07.781Z,26.20
2022-08-17T19:07:39.790Z,26.10
2022-08-17T19:10:28.222Z,26.00
2022-08-17T19:13:12.281Z,26.00
2022-08-17T19:15:43.420Z,25.90
2022-08-17T19:18:15.647Z,25.80
2022-08-17T19:21:20.345Z,25.70
2022-08-17T19:23:54.569Z,25.60
2022-08-17T19:26:53.689Z,25.50
2022-08-17T19:29:34.843Z,25.30
2022-08-17T19:32:01.617Z,25.30
2022-08-17T19:34:34.148Z,25.20
2022-08-17T19:37:45.554Z,25.20
2022-08-17T19:40:41.761Z,25.10
2022-08-17T19:43:15.032Z,25.00
2022-08-17T19:46:13.435Z,24.90
2022-08-17T19:49:07.342Z,24.80
2022-08-17T19:52:18.984Z,24.70
2022-08-17T19:55:09.774Z,24.60
2022-08-17T19:58:10.098Z,24.50
2022-08-17T20:00:40.013Z,24.50
2022-08-17T20:03:16.672Z,24.40
2022-08-17T20:06:11.402Z,24.40
2022-08-17T20:08:53.905Z,24.30
2022-08-17T20:11:24.735Z,24.20
2022-08-17T20:13:58.663Z,24.20
2022-08-17T20:16:25.378Z,24.20
2022-08-17T20:19:20.390Z,24.20
2022-08-17T20:21:55.574Z,24.10
2022-08-17T20:25:06.406Z,24.10
2022-08-17T20:27:47.857Z,24.10
2022-08-17T20:30:37.605Z,24.10
2022-08-17T20:33:06.682Z,24.10
2022-08-17T20:35:38.152Z,24.00
2022-08-17T20:38:13.220Z,24.10
2022-08-17T20:40:55.269Z,24.10
2022-08-17T20:43:35.513Z,24.00
2022-08-17T20:46:27.350Z,24.00
2022-08-17T20:48:57.010Z,24.00
2022-08-17T20:51:31.613Z,24.00
2022-08-17T20:54:08.059Z,24.00
2022-08-17T20:56:43.703Z,24.00
2022-08-17T20:59:25.665Z,23.90
2022-08-17T21:02:18.169Z,23.80
2022-08-17T21:04:52.678Z,23.80
2022-08-17T21:07:43.546Z,23.70
2022-08-17T21:10:14.724Z,23.60
2022-08-17T21:12:50.116Z,23.50
2022-08-17T21:15:36.502Z,23.40
2022-08-17T21:18:25.888Z,23.40
2022-08-17T21:21:17.555Z,23.40
2022-08-17T21:23:50.177Z,23.40
2022-08-17T21:26:17.438Z,23.40
2022-08-17T21:29:00.888Z,23.40
2022-08-17T21:31:29.710Z,23.40
2022-08-17T21:34:16.235Z,23.40
2022-08-17T21:36:43.684Z,23.40
2022-08-17T21:39:13.374Z,23.30
2022-08-17T21:41:52.951Z,23.40
2022-08-17T21:44:21.616Z,23.30
2022-08-17T21:46:50.169Z,23.20
2022-08-17T21:49:19.401Z,23.20
2022-08-17T21:51:49.919Z,23.20
2022-08-17T21:54:35.693Z,23.20
2022-08-17T21:57:04.079Z,23.20
2022-08-17T21:59:33.138Z,23.20
2022-08-17T22:02:01.388Z,23.10
2022-08-17T22:04:31.863Z,23.10
2022-08-17T22:07:00.449Z,23.10
2022-08-17T22:09:34.306Z,23.10
2022-08-17T22:12:11.263Z,23.10
2022-08-17T22:15:00.427Z,23.10
2022-08-17T22:17:39.894Z,23.10
2022-08-17T22:20:10.500Z,23.10
2022-08-17T22:22:59.160Z,23.10
2022-08-17T22:25:26.836Z,23.00
2022-08-17T22:28:01.051Z,23.00
2022-08-17T22:30:33.484Z,22.90
2022-08-17T22:33:00.790Z,22.80
2022-08-17T22:35:30.208Z,22.80
2022-08-17T22:37:57.352Z,22.80
2022-08-17T22:40:30.384Z,22.80
2022-08-17T22:42:57.935Z,22.80
2022-08-17T22:45:25.831Z,22.80
2022-08-17T22:48:00.694Z,22.90
2022-08-17T22:50:28.899Z,22.90
2022-08-17T22:53:16.411Z,23.00
2022-08-17T22:56:11.741Z,23.00
2022-08-17T22:59:09.682Z,22.90
2022-08-17T23:01:36.383Z,22.90
2022-08-17T23:04:33.262Z,22.90
2022-08-17T23:06:59.990Z,22.90
2022-08-17T23:09:26.727Z,22.90
2022-08-17T23:11:58.910Z,23.00
2022-08-17T23:14:31.542Z,23.00
2022-08-17T23:16:59.308Z,23.10
2022-08-17T23:19:27.259Z,23.20
2022-08-17T23:21:55.392Z,23.30
2022-08-17T23:24:24.574Z,23.40
2022-08-17T23:26:51.375Z,23.50
2022-08-17T23:29:20.461Z,23.50
2022-08-17T23:31:49.164Z,23.40
2022-08-17T23:34:18.317Z,23.30
2022-08-17T23:36:50.575Z,23.10
2022-08-17T23:39:27.519Z,23.00
2022-08-17T23:41:57.049Z,22.80
2022-08-17T23:44:23.824Z,22.70
2022-08-17T23:46:53.912Z,22.50
2022-08-17T23:49:20.687Z,22.50
2022-08-17T23:51:47.813Z,22.40
2022-08-17T23:54:29.554Z,22.20
2022-08-17T23:56:56.307Z,22.00
2022-08-17T23:59:23.106Z,22.00
